aviador You're here:

LFLY Decoded Metar

LYON BRON in FRANCE
Report Time2018-06-25 06:00:00
UTC Time2018-06-25 06:26:07
Flight Rules vfr VFR
Wind350° at 08 kt
W.Decomp.*RWY 34: 7.9 kt HW 1.4 kt RCW
W.Rank350° ranks 1
Current wind is below 350° avg. (8.3)
Visibility9999 m
Phenomena:N/A
Clouds:N/A
Expected CloudBase > 2,800 ft AGL from Temp-Dew spread
CeilingNone
Temp16°C (ISA +2)
Dew Point09°C (63% RH)
AAT12.9°C
QNH1019 hPa
Density Alt886 ft
Elevation659 ft
Report Wrong Elevation
Raw Report
METAR LFLY 250600Z AUTO 35008KT 330V050 CAVOK 16/09 Q1019 NOSIG=

Extra information for LFLY:More info

Metar Taf Metar & Taf Last 4 Metars F.Rules Stats Wind Profile Meteogram Temp Stats Airport Information Weather charts Add Link Nearby VenuesMetar ALERT Operation Metar Decoded Social comments